Change the Weather History Date:

Tuesday, March 12, 2013

  Actual Average (KBCB) Record (KBCB)
Temperature  
Mean Temperature 43 °F 40 °F  
Max Temperature 51 °F 52 °F 78 °F (1990)
Min Temperature 35 °F 29 °F 4 °F (1969)
Degree Days  
Heating Degree Days 22 25  
Month to date heating degree days 315  
Since 1 July heating degree days 4363  
Cooling Degree Days 0 0  
Month to date cooling degree days 0  
Year to date cooling degree days 0  
Moisture  
Dew Point 39 °F    
Average Humidity 80    
Maximum Humidity 100    
Minimum Humidity 53    
Precipitation  
Precipitation 0.27 in 0.11 in 1.33 in (1963)
Month to date precipitation 1.27  
Year to date precipitation 7.16  
Snow  
Snow 0.00 in - - ()
Month to date snowfall  
Since 1 July snowfall  
Snow Depth -    
Sea Level Pressure  
Sea Level Pressure 29.89 in    
Wind  
Wind Speed 7 mph (West)    
Max Wind Speed 17 mph    
Max Gust Speed 23 mph    
Visibility 10 miles    
Events Rain    
T = Trace of Precipitation, MM = Missing Value Source: NWS Daily Summary

Daily Weather History Graph

Daily Weather History Graph

Search for Another Location

Airport or City:

Trip Planner

Search our weather history database for the weather conditions in past years. The results will help you decide how hot, cold, wet, or windy it might be!

Date:

Astronomy

Mar. 12, 2013 Rise Set
Actual Time 7:37 AM EDT 7:27 PM EDT
Civil Twilight 7:11 AM EDT 7:53 PM EDT
Nautical Twilight 6:41 AM EDT 8:23 PM EDT
Astronomical Twilight 6:11 AM EDT 8:54 PM EDT
Moon 7:45 AM EDT (3/12) 8:38 PM EDT (3/12)
Length of Visible Light 12h 41m
Length of Day
11h 49m
New Moon, 1% of the Moon is Illuminated
Mar 12
New Moon
Mar 19
First Quarter
Mar 27
Full
Apr 3
Last Quarter
Apr 10
New

Hourly Weather History & Observations

Time (EDT) Temp. Windchill Dew Point Humidity Pressure Visibility Wind Dir Wind Speed Gust Speed Precip Events Conditions
12:15 AM 51.8 °F - 51.8 °F 100% 29.86 in 7.0 mi SSE 4.6 mph - 0.01 in Rain Rain
12:35 AM 51.8 °F - 51.8 °F 100% 29.87 in 10.0 mi SW 5.8 mph - N/A   Light Drizzle
12:55 AM 51.8 °F - 51.8 °F 100% 29.84 in 10.0 mi SE 8.1 mph - 0.03 in Rain Rain
1:15 AM 51.8 °F - 51.8 °F 100% 29.83 in 10.0 mi SSE 8.1 mph - N/A Rain Rain
1:35 AM 51.8 °F - 51.8 °F 100% 29.84 in 10.0 mi South 4.6 mph - 0.01 in Rain Rain
1:55 AM 51.8 °F - 51.8 °F 100% 29.85 in 7.0 mi SSW 4.6 mph - 0.03 in Rain Rain
2:15 AM 51.8 °F - 51.8 °F 100% 29.84 in 10.0 mi South 3.5 mph - 0.02 in Rain Rain
2:35 AM 51.8 °F - 51.8 °F 100% 29.84 in 10.0 mi South 5.8 mph - 0.01 in Rain Rain
2:55 AM 51.8 °F - 51.8 °F 100% 29.82 in 10.0 mi South 3.5 mph - 0.03 in Rain Rain
3:15 AM 51.8 °F - 51.8 °F 100% 29.81 in 10.0 mi SE 3.5 mph - N/A Rain Rain
3:35 AM 51.8 °F - 51.8 °F 100% 29.79 in 7.0 mi Calm Calm - N/A   Drizzle
3:55 AM 51.8 °F - 51.8 °F 100% 29.79 in - Calm Calm - N/A   Unknown
4:15 AM 51.8 °F - 51.8 °F 100% 29.77 in - Calm Calm - 0.01 in   Unknown
4:35 AM 51.8 °F - 51.8 °F 100% 29.76 in - Calm Calm - N/A   Unknown
4:55 AM 51.8 °F - 51.8 °F 100% 29.76 in - Calm Calm - 0.10 in   Overcast
5:15 AM 51.8 °F - 51.8 °F 100% 29.76 in - Calm Calm - 0.07 in   Unknown
5:35 AM 51.8 °F - 51.8 °F 100% 29.77 in 3.0 mi Calm Calm - 0.02 in Rain Rain
5:55 AM 51.8 °F - 51.8 °F 100% 29.77 in 3.0 mi West 4.6 mph - 0.01 in Rain Light Rain
6:15 AM 48.2 °F - 48.2 °F 100% 29.79 in 10.0 mi WNW 10.4 mph - N/A Rain Light Rain
6:35 AM 46.4 °F 41.5 °F 46.4 °F 100% 29.80 in 10.0 mi West 10.4 mph - N/A   Overcast
6:55 AM 46.4 °F 41.9 °F 46.4 °F 100% 29.81 in 10.0 mi West 9.2 mph - N/A   Overcast
7:15 AM 44.6 °F 39.7 °F 44.6 °F 100% 29.82 in 10.0 mi WNW 9.2 mph - N/A Rain Light Rain
7:35 AM 44.6 °F 39.7 °F 42.8 °F 93% 29.84 in 10.0 mi WNW 9.2 mph - N/A   Overcast
7:55 AM 42.8 °F 38.0 °F 41.0 °F 93% 29.83 in 10.0 mi NNW 8.1 mph - N/A Rain Light Rain
8:15 AM 42.8 °F 41.1 °F 39.2 °F 87% 29.85 in 10.0 mi NW 3.5 mph - N/A   Overcast
8:35 AM 42.8 °F 40.1 °F 39.2 °F 87% 29.86 in 10.0 mi NW 4.6 mph - N/A   Overcast
8:55 AM 42.8 °F 37.5 °F 39.2 °F 87% 29.87 in 10.0 mi WNW 9.2 mph - N/A   Mostly Cloudy
9:15 AM 42.8 °F 34.8 °F 39.2 °F 87% 29.88 in 10.0 mi WNW 17.3 mph 20.7 mph N/A   Overcast
9:35 AM 41.0 °F 34.3 °F 37.4 °F 87% 29.90 in 10.0 mi WNW 11.5 mph - N/A   Overcast
9:55 AM 39.2 °F 31.2 °F 37.4 °F 93% 29.91 in 10.0 mi West 13.8 mph 20.7 mph N/A   Mostly Cloudy
10:15 AM 41.0 °F 33.9 °F 37.4 °F 87% 29.92 in 10.0 mi NW 12.7 mph - 0.01 in   Overcast
10:35 AM 41.0 °F 35.2 °F 37.4 °F 87% 29.91 in 10.0 mi WNW 9.2 mph - N/A   Overcast
10:55 AM 42.8 °F 38.0 °F 37.4 °F 81% 29.92 in 10.0 mi NW 8.1 mph - N/A   Overcast
11:15 AM 42.8 °F 36.6 °F 37.4 °F 81% 29.92 in 10.0 mi West 11.5 mph 16.1 mph N/A   Mostly Cloudy
11:35 AM 44.6 °F 39.7 °F 39.2 °F 81% 29.92 in 10.0 mi WNW 9.2 mph - N/A   Mostly Cloudy
11:55 AM 44.6 °F 38.4 °F 37.4 °F 76% 29.91 in 10.0 mi West 12.7 mph 17.3 mph N/A   Mostly Cloudy
12:15 PM 44.6 °F 37.4 °F 37.4 °F 76% 29.91 in 10.0 mi West 16.1 mph 20.7 mph N/A   Scattered Clouds
12:35 PM 46.4 °F 40.7 °F 37.4 °F 71% 29.91 in 10.0 mi West 12.7 mph 18.4 mph N/A   Scattered Clouds
12:55 PM 44.6 °F 37.4 °F 35.6 °F 71% 29.91 in 10.0 mi NW 16.1 mph - N/A   Mostly Cloudy
1:15 PM 44.6 °F 37.4 °F 35.6 °F 71% 29.91 in 10.0 mi NW 16.1 mph 19.6 mph N/A   Scattered Clouds
1:35 PM 46.4 °F 42.4 °F 37.4 °F 71% 29.91 in 10.0 mi West 8.1 mph - N/A   Scattered Clouds
1:55 PM 46.4 °F 42.9 °F 35.6 °F 66% 29.91 in 10.0 mi NW 6.9 mph 17.3 mph N/A   Mostly Cloudy
2:15 PM 48.2 °F - 35.6 °F 62% 29.92 in 10.0 mi West 13.8 mph 20.7 mph N/A   Mostly Cloudy
2:35 PM 46.4 °F 40.4 °F 33.8 °F 62% 29.92 in 10.0 mi WNW 13.8 mph 23.0 mph N/A   Mostly Cloudy
2:55 PM 46.4 °F 40.1 °F 33.8 °F 62% 29.91 in 10.0 mi WNW 15.0 mph 19.6 mph N/A   Scattered Clouds
3:15 PM 46.4 °F 40.1 °F 35.6 °F 66% 29.91 in 10.0 mi West 15.0 mph 20.7 mph N/A   Scattered Clouds
3:35 PM 46.4 °F 41.5 °F 33.8 °F 62% 29.91 in 10.0 mi WSW 10.4 mph - N/A   Scattered Clouds
3:55 PM 46.4 °F 41.1 °F 33.8 °F 62% 29.91 in 10.0 mi West 11.5 mph - N/A   Clear
4:15 PM 48.2 °F - 33.8 °F 58% 29.91 in 10.0 mi West 10.4 mph 16.1 mph N/A   Clear
4:35 PM 48.2 °F - 33.8 °F 58% 29.91 in 10.0 mi West 9.2 mph 18.4 mph N/A   Clear
4:55 PM 46.4 °F 42.4 °F 32.0 °F 57% 29.90 in 10.0 mi WNW 8.1 mph - N/A   Clear
5:15 PM 46.4 °F 41.5 °F 32.0 °F 57% 29.91 in 10.0 mi NW 10.4 mph - N/A   Clear
5:35 PM 48.2 °F - 32.0 °F 54% 29.91 in 10.0 mi West 11.5 mph 17.3 mph N/A   Clear
5:55 PM 46.4 °F 41.5 °F 30.2 °F 53% 29.92 in 10.0 mi WNW 10.4 mph 18.4 mph N/A   Clear
6:15 PM 46.4 °F 41.5 °F 30.2 °F 53% 29.93 in 10.0 mi WNW 10.4 mph 18.4 mph N/A   Clear
6:35 PM 44.6 °F 39.2 °F 30.2 °F 57% 29.93 in 10.0 mi WNW 10.4 mph - N/A   Clear
6:55 PM 44.6 °F 39.2 °F 30.2 °F 57% 29.94 in 10.0 mi WNW 10.4 mph - N/A   Clear
7:15 PM 42.8 °F 36.6 °F 30.2 °F 61% 29.95 in 10.0 mi WNW 11.5 mph - N/A   Clear
7:35 PM 42.8 °F 35.8 °F 30.2 °F 61% 29.97 in 10.0 mi West 13.8 mph - N/A   Clear
7:55 PM 41.0 °F 34.3 °F 30.2 °F 65% 29.97 in 10.0 mi West 11.5 mph 16.1 mph N/A   Clear
8:15 PM 41.0 °F 34.7 °F 28.4 °F 61% 29.98 in 10.0 mi WNW 10.4 mph - N/A   Clear
8:35 PM 39.2 °F 33.0 °F 30.2 °F 70% 29.98 in 10.0 mi WNW 9.2 mph - N/A   Clear
8:55 PM 39.2 °F 34.2 °F 30.2 °F 70% 29.99 in 10.0 mi West 6.9 mph - N/A   Clear
9:15 PM 39.2 °F 32.5 °F 30.2 °F 70% 29.99 in 10.0 mi NW 10.4 mph - N/A   Clear
9:35 PM 37.4 °F - 30.2 °F 75% 29.99 in 10.0 mi Calm Calm - N/A   Clear
9:55 PM 39.2 °F 33.0 °F 30.2 °F 70% 30.00 in 10.0 mi WNW 9.2 mph - N/A   Clear
10:15 PM 39.2 °F 33.0 °F 30.2 °F 70% 30.00 in 10.0 mi WNW 9.2 mph 17.3 mph N/A   Clear
10:35 PM 37.4 °F 30.3 °F 30.2 °F 75% 30.01 in 10.0 mi West 10.4 mph - N/A   Clear
10:55 PM 35.6 °F 30.7 °F 30.2 °F 81% 30.01 in 10.0 mi West 5.8 mph - N/A   Clear
11:15 PM 37.4 °F 30.8 °F 30.2 °F 75% 30.01 in 10.0 mi West 9.2 mph - N/A   Clear
11:35 PM 37.4 °F 30.3 °F 30.2 °F 75% 30.00 in 10.0 mi WNW 10.4 mph - N/A   Clear
11:55 PM 37.4 °F 32.8 °F 30.2 °F 75% 30.01 in 10.0 mi WNW 5.8 mph - N/A   Clear